PWSweather.com
Personal Weather Stations
Station Observations
KNYSYRAC2
Fairmount Hills, Fairmount, NY 13219

Fairmount HillsFairmount, NY 13219

Lat: 43.03602, Lon: -76.247151

Elevation: 663

Station Type: Ambient Weather WS-2080

http://weather.cerchia.com

High Low Average
Temperature 35.0°F1.7°F 14.4°F-9.8°F 21.6°F-5.8°F
Dew Point 26.9°F-2.8°F -4.9°F-20.5°F 5.3°F-14.8°F
Winds 12.3 mph N19.8 mph N 2.3 mph 3.7 mph 7.1 mph 11.4 mph
Wind Gusts 33.3 mph53.6 mph 5.6 mph9.0 mph 18.3 mph29.5 mph
Humidity 88% 31% 51%
Pressure 30.47 in1031.80 in 29.92 in1013.20 in -
Precipitation 0.38 in9.70 in - -
Hour Temp Dew Point Humidity Winds Wind Gusts Pressure Precip Precip Rate Daily Precip Total
12:00 AM 34.8°F1.6°C 21.5°F-5.8°C 58% 5.7 mph NW9.2 kmh NW 13.4 mph21.6 kmh 29.93 in1013.5 mb 0.00 in0.0 mm 0.00 in0.0 mm 0.00 in0.0 mm
12:15 AM 35.0°F1.7°C 22.1°F-5.5°C 59% 8.5 mph NNW13.7 kmh NNW 19.0 mph30.6 kmh 29.93 in1013.5 mb 0.00 in0.0 mm 0.00 in0.0 mm 0.00 in0.0 mm
12:30 AM 34.8°F1.6°C 22.3°F-5.4°C 60% 9.3 mph NW15.0 kmh NW 24.6 mph39.6 kmh 29.93 in1013.5 mb 0.00 in0.0 mm 0.00 in0.0 mm 0.00 in0.0 mm
12:45 AM 34.6°F1.4°C 22.1°F-5.5°C 60% 8.7 mph NW14.0 kmh NW 22.9 mph36.9 kmh 29.93 in1013.5 mb 0.00 in0.0 mm 0.00 in0.0 mm 0.00 in0.0 mm
01:00 AM 34.4°F1.3°C 22.3°F-5.4°C 61% 7.0 mph NW11.3 kmh NW 19.9 mph32.0 kmh 29.93 in1013.5 mb 0.00 in0.0 mm 0.00 in0.0 mm 0.00 in0.0 mm
01:15 AM 33.9°F1.1°C 23.0°F-5.0°C 64% 7.8 mph NW12.6 kmh NW 17.1 mph27.5 kmh 29.92 in1013.2 mb 0.00 in0.0 mm 0.00 in0.0 mm 0.00 in0.0 mm
01:30 AM 33.2°F0.7°C 24.1°F-4.4°C 69% 7.7 mph W12.4 kmh W 22.9 mph36.9 kmh 29.93 in1013.5 mb 0.00 in0.0 mm 0.00 in0.0 mm 0.00 in0.0 mm
01:45 AM 31.9°F-0.1°C 25.2°F-3.8°C 76% 5.8 mph N9.3 kmh N 12.3 mph19.8 kmh 29.95 in1014.2 mb 0.00 in0.0 mm 0.00 in0.0 mm 0.00 in0.0 mm
02:00 AM 31.2°F-0.4°C 26.0°F-3.3°C 81% 4.0 mph N6.4 kmh N 12.3 mph19.8 kmh 29.95 in1014.2 mb 0.00 in0.0 mm 0.00 in0.0 mm 0.00 in0.0 mm
02:15 AM 30.6°F-0.8°C 26.9°F-2.8°C 86% 3.5 mph NW5.6 kmh NW 8.7 mph14.0 kmh 29.97 in1014.9 mb 0.00 in0.0 mm 0.00 in0.0 mm 0.00 in0.0 mm
02:30 AM 29.2°F-1.6°C 25.5°F-3.6°C 86% 8.9 mph NNW14.3 kmh NNW 21.8 mph35.1 kmh 29.98 in1015.2 mb 0.00 in0.0 mm 0.00 in0.0 mm 0.00 in0.0 mm
02:45 AM 28.1°F-2.2°C 25.0°F-3.9°C 88% 7.6 mph N12.2 kmh N 23.8 mph38.3 kmh 29.99 in1015.6 mb 0.00 in0.0 mm 0.00 in0.0 mm 0.00 in0.0 mm
03:00 AM 27.4°F-2.6°C 24.3°F-4.3°C 88% 7.1 mph N11.4 kmh N 19.0 mph30.6 kmh 30.01 in1016.3 mb 0.00 in0.0 mm 0.00 in0.0 mm 0.00 in0.0 mm
03:15 AM 26.5°F-3.1°C 22.0°F-5.6°C 83% 7.1 mph N11.4 kmh N 18.2 mph29.3 kmh 30.02 in1016.6 mb 0.00 in0.0 mm 0.00 in0.0 mm 0.00 in0.0 mm
03:30 AM 25.6°F-3.6°C 21.2°F-6.0°C 83% 6.4 mph NNW10.3 kmh NNW 18.2 mph29.3 kmh 30.03 in1016.9 mb 0.00 in0.0 mm 0.00 in0.0 mm 0.00 in0.0 mm
03:45 AM 25.1°F-3.8°C 20.6°F-6.3°C 83% 7.7 mph NNW12.4 kmh NNW 24.6 mph39.6 kmh 30.05 in1017.6 mb 0.00 in0.0 mm 0.00 in0.0 mm 0.00 in0.0 mm
04:00 AM 23.8°F-4.6°C 18.2°F-7.7°C 79% 9.1 mph NNW14.6 kmh NNW 22.9 mph36.9 kmh 30.06 in1017.9 mb 0.00 in0.0 mm 0.00 in0.0 mm 0.00 in0.0 mm
04:15 AM 23.1°F-4.9°C 16.9°F-8.4°C 77% 8.8 mph NNW14.2 kmh NNW 19.0 mph30.6 kmh 30.08 in1018.6 mb 0.00 in0.0 mm 0.00 in0.0 mm 0.00 in0.0 mm
04:30 AM 22.7°F-5.2°C 15.4°F-9.2°C 73% 7.5 mph N12.1 kmh N 19.0 mph30.6 kmh 30.08 in1018.6 mb 0.00 in0.0 mm 0.00 in0.0 mm 0.00 in0.0 mm
04:45 AM 22.5°F-5.3°C 13.6°F-10.2°C 68% 7.4 mph N11.9 kmh N 21.8 mph35.1 kmh 30.09 in1019.0 mb 0.00 in0.0 mm 0.00 in0.0 mm 0.00 in0.0 mm
05:00 AM 22.2°F-5.4°C 11.8°F-11.2°C 64% 8.0 mph NNW12.9 kmh NNW 19.0 mph30.6 kmh 30.10 in1019.3 mb 0.00 in0.0 mm 0.00 in0.0 mm 0.00 in0.0 mm
05:15 AM 21.8°F-5.7°C 10.1°F-12.2°C 60% 7.8 mph N12.6 kmh N 18.2 mph29.3 kmh 30.12 in1020.0 mb 0.00 in0.0 mm 0.00 in0.0 mm 0.00 in0.0 mm
05:30 AM 21.6°F-5.8°C 8.7°F-12.9°C 57% 9.5 mph NW15.3 kmh NW 21.0 mph33.8 kmh 30.13 in1020.3 mb 0.00 in0.0 mm 0.00 in0.0 mm 0.00 in0.0 mm
05:45 AM 21.1°F-6.1°C 7.8°F-13.4°C 56% 6.9 mph N11.1 kmh N 19.9 mph32.0 kmh 30.15 in1021.0 mb 0.00 in0.0 mm 0.00 in0.0 mm 0.00 in0.0 mm
06:00 AM 20.6°F-6.3°C 7.3°F-13.7°C 56% 6.8 mph N10.9 kmh N 17.1 mph27.5 kmh 30.16 in1021.3 mb 0.00 in0.0 mm 0.00 in0.0 mm 0.00 in0.0 mm
06:15 AM 19.8°F-6.8°C 5.9°F-14.5°C 54% 9.1 mph N14.6 kmh N 21.8 mph35.1 kmh 30.18 in1022.0 mb 0.00 in0.0 mm 0.00 in0.0 mm 0.00 in0.0 mm
06:30 AM 19.5°F-6.9°C 6.3°F-14.3°C 56% 8.7 mph N14.0 kmh N 19.0 mph30.6 kmh 30.19 in1022.4 mb 0.00 in0.0 mm 0.00 in0.0 mm 0.00 in0.0 mm
06:45 AM 18.8°F-7.3°C 5.2°F-14.9°C 55% 12.3 mph N19.8 kmh N 27.7 mph44.6 kmh 30.20 in1022.7 mb 0.00 in0.0 mm 0.00 in0.0 mm 0.00 in0.0 mm
07:00 AM 17.7°F-7.9°C 3.4°F-15.9°C 53% 7.3 mph NNE11.7 kmh NNE 18.2 mph29.3 kmh 30.22 in1023.4 mb 0.00 in0.0 mm 0.00 in0.0 mm 0.00 in0.0 mm
07:15 AM 17.3°F-8.2°C 3.9°F-15.6°C 55% 8.2 mph N13.2 kmh N 18.2 mph29.3 kmh 30.23 in1023.7 mb 0.00 in0.0 mm 0.00 in0.0 mm 0.00 in0.0 mm
07:30 AM 17.1°F-8.3°C 3.7°F-15.7°C 55% 6.7 mph N10.8 kmh N 21.0 mph33.8 kmh 30.25 in1024.4 mb 0.00 in0.0 mm 0.00 in0.0 mm 0.00 in0.0 mm
07:45 AM 16.8°F-8.4°C 3.0°F-16.1°C 54% 8.8 mph NNE14.2 kmh NNE 21.0 mph33.8 kmh 30.26 in1024.7 mb 0.00 in0.0 mm 0.00 in0.0 mm 0.00 in0.0 mm
08:00 AM 16.6°F-8.6°C 4.4°F-15.3°C 58% 7.5 mph N12.1 kmh N 16.2 mph26.1 kmh 30.27 in1025.1 mb 0.00 in0.0 mm 0.00 in0.0 mm 0.00 in0.0 mm
08:15 AM 15.3°F-9.3°C 3.2°F-16.0°C 58% 8.2 mph N13.2 kmh N 18.2 mph29.3 kmh 30.28 in1025.4 mb 0.00 in0.0 mm 0.00 in0.0 mm 0.00 in0.0 mm
08:30 AM 15.0°F-9.4°C 3.9°F-15.6°C 61% 7.7 mph N12.4 kmh N 17.1 mph27.5 kmh 30.29 in1025.7 mb 0.00 in0.0 mm 0.00 in0.0 mm 0.00 in0.0 mm
08:45 AM 14.4°F-9.8°C 5.5°F-14.7°C 67% 8.7 mph NNE14.0 kmh NNE 19.0 mph30.6 kmh 30.30 in1026.1 mb 0.00 in0.0 mm 0.00 in0.0 mm 0.00 in0.0 mm
09:00 AM 14.8°F-9.6°C 6.5°F-14.2°C 69% 7.4 mph N11.9 kmh N 21.0 mph33.8 kmh 30.30 in1026.1 mb 0.00 in0.0 mm 0.00 in0.0 mm 0.00 in0.0 mm
09:15 AM 14.8°F-9.6°C 6.8°F-14.0°C 70% 6.4 mph N10.3 kmh N 22.9 mph36.9 kmh 30.32 in1026.8 mb 0.00 in0.0 mm 0.00 in0.0 mm 0.00 in0.0 mm
09:30 AM 15.2°F-9.3°C 6.5°F-14.2°C 68% 10.7 mph N17.2 kmh N 22.9 mph36.9 kmh 30.32 in1026.8 mb 0.00 in0.0 mm 0.00 in0.0 mm 0.00 in0.0 mm
09:45 AM 15.9°F-8.9°C 6.2°F-14.3°C 65% 9.5 mph N15.3 kmh N 18.2 mph29.3 kmh 30.33 in1027.1 mb 0.00 in0.0 mm 0.00 in0.0 mm 0.00 in0.0 mm
10:00 AM 17.0°F-8.3°C 5.8°F-14.6°C 61% 7.6 mph N12.2 kmh N 17.1 mph27.5 kmh 30.33 in1027.1 mb 0.00 in0.0 mm 0.00 in0.0 mm 0.00 in0.0 mm
10:15 AM 16.2°F-8.8°C 2.1°F-16.6°C 53% 8.3 mph N13.4 kmh N 21.8 mph35.1 kmh 30.34 in1027.4 mb 0.00 in0.0 mm 0.00 in0.0 mm 0.00 in0.0 mm
10:30 AM 17.5°F-8.1°C -0.7°F-18.2°C 44% 9.5 mph N15.3 kmh N 23.8 mph38.3 kmh 30.34 in1027.4 mb 0.00 in0.0 mm 0.00 in0.0 mm 0.00 in0.0 mm
10:45 AM 18.0°F-7.8°C -3.3°F-19.6°C 38% 9.1 mph N14.6 kmh N 22.9 mph36.9 kmh 30.35 in1027.8 mb 0.00 in0.0 mm 0.00 in0.0 mm 0.00 in0.0 mm
11:00 AM 18.0°F-7.8°C -3.9°F-19.9°C 37% 11.4 mph N18.3 kmh N 26.6 mph42.8 kmh 30.36 in1028.1 mb 0.00 in0.0 mm 0.00 in0.0 mm 0.00 in0.0 mm
11:15 AM 18.4°F-7.6°C -1.9°F-18.8°C 40% 8.9 mph N14.3 kmh N 19.9 mph32.0 kmh 30.36 in1028.1 mb 0.00 in0.0 mm 0.00 in0.0 mm 0.00 in0.0 mm
11:30 AM 18.4°F-7.6°C -2.5°F-19.2°C 39% 9.7 mph N15.6 kmh N 21.8 mph35.1 kmh 30.37 in1028.4 mb 0.00 in0.0 mm 0.00 in0.0 mm 0.00 in0.0 mm
11:45 AM 18.4°F-7.6°C -2.5°F-19.2°C 39% 9.7 mph N15.6 kmh N 19.9 mph32.0 kmh 30.37 in1028.4 mb 0.00 in0.0 mm 0.00 in0.0 mm 0.00 in0.0 mm
12:00 PM 18.8°F-7.3°C -1.6°F-18.7°C 40% 6.7 mph N10.8 kmh N 16.2 mph26.1 kmh 30.38 in1028.8 mb 0.00 in0.0 mm 0.00 in0.0 mm 0.00 in0.0 mm
12:15 PM 19.3°F-7.1°C 0.4°F-17.6°C 43% 7.5 mph N12.1 kmh N 17.1 mph27.5 kmh 30.38 in1028.8 mb 0.00 in0.0 mm 0.00 in0.0 mm 0.00 in0.0 mm
12:30 PM 18.9°F-7.3°C -1.5°F-18.6°C 40% 8.7 mph NW14.0 kmh NW 25.7 mph41.4 kmh 30.38 in1028.8 mb 0.00 in0.0 mm 0.00 in0.0 mm 0.00 in0.0 mm
12:45 PM 19.5°F-6.9°C -1.5°F-18.6°C 39% 7.1 mph N11.4 kmh N 22.9 mph36.9 kmh 30.39 in1029.1 mb 0.00 in0.0 mm 0.00 in0.0 mm 0.00 in0.0 mm
01:00 PM 18.9°F-7.3°C -3.1°F-19.5°C 37% 10.6 mph NNW17.1 kmh NNW 24.6 mph39.6 kmh 30.41 in1029.8 mb 0.00 in0.0 mm 0.00 in0.0 mm 0.00 in0.0 mm
01:15 PM 19.5°F-6.9°C -2.6°F-19.2°C 37% 8.2 mph N13.2 kmh N 23.8 mph38.3 kmh 30.40 in1029.5 mb 0.00 in0.0 mm 0.00 in0.0 mm 0.00 in0.0 mm
01:30 PM 19.8°F-6.8°C -4.7°F-20.4°C 33% 8.1 mph NNW13.0 kmh NNW 19.0 mph30.6 kmh 30.40 in1029.5 mb 0.00 in0.0 mm 0.00 in0.0 mm 0.00 in0.0 mm
01:45 PM 20.7°F-6.3°C -4.5°F-20.3°C 32% 9.9 mph N15.9 kmh N 33.3 mph53.6 kmh 30.40 in1029.5 mb 0.00 in0.0 mm 0.00 in0.0 mm 0.00 in0.0 mm
02:00 PM 21.1°F-6.1°C -4.9°F-20.5°C 31% 8.7 mph N14.0 kmh N 21.8 mph35.1 kmh 30.41 in1029.8 mb 0.00 in0.0 mm 0.00 in0.0 mm 0.00 in0.0 mm
02:15 PM 23.1°F-4.9°C -0.6°F-18.1°C 35% 11.6 mph N18.7 kmh N 25.7 mph41.4 kmh 30.41 in1029.8 mb 0.00 in0.0 mm 0.00 in0.0 mm 0.00 in0.0 mm
02:30 PM 23.4°F-4.8°C -0.2°F-17.9°C 35% 9.4 mph N15.1 kmh N 24.6 mph39.6 kmh 30.40 in1029.5 mb 0.00 in0.0 mm 0.00 in0.0 mm 0.00 in0.0 mm
02:45 PM 21.1°F-6.1°C -2.9°F-19.4°C 34% 7.4 mph NNW11.9 kmh NNW 18.2 mph29.3 kmh 30.41 in1029.8 mb 0.00 in0.0 mm 0.00 in0.0 mm 0.00 in0.0 mm
03:00 PM 21.6°F-5.8°C -1.8°F-18.8°C 35% 8.3 mph N13.4 kmh N 23.8 mph38.3 kmh 30.41 in1029.8 mb 0.02 in0.5 mm 0.03 in0.8 mm 0.02 in0.5 mm
03:15 PM 23.1°F-4.9°C 0.0°F-17.8°C 36% 7.7 mph NW12.4 kmh NW 21.8 mph35.1 kmh 30.41 in1029.8 mb 0.04 in1.0 mm 0.08 in2.0 mm 0.04 in1.0 mm
03:30 PM 23.4°F-4.8°C -0.2°F-17.9°C 35% 8.2 mph N13.2 kmh N 21.0 mph33.8 kmh 30.41 in1029.8 mb 0.05 in1.3 mm 0.04 in1.0 mm 0.05 in1.3 mm
03:45 PM 20.7°F-6.3°C -4.5°F-20.3°C 32% 8.6 mph NNW13.8 kmh NNW 21.8 mph35.1 kmh 30.41 in1029.8 mb 0.06 in1.5 mm 0.04 in1.0 mm 0.06 in1.5 mm
04:00 PM 24.0°F-4.4°C 0.2°F-17.7°C 35% 7.2 mph NNW11.6 kmh NNW 18.2 mph29.3 kmh 30.42 in1030.1 mb 0.05 in1.3 mm 0.00 in0.0 mm 0.07 in1.8 mm
04:15 PM 25.6°F-3.6°C 0.4°F-17.6°C 33% 7.9 mph N12.7 kmh N 18.2 mph29.3 kmh 30.42 in1030.1 mb 0.05 in1.3 mm 0.00 in0.0 mm 0.08 in2.0 mm
04:30 PM 23.8°F-4.6°C -0.5°F-18.1°C 34% 7.7 mph NNW12.4 kmh NNW 22.9 mph36.9 kmh 30.42 in1030.1 mb 0.04 in1.0 mm 0.00 in0.0 mm 0.09 in2.3 mm
04:45 PM 24.0°F-4.4°C -0.4°F-18.0°C 34% 8.2 mph N13.2 kmh N 19.9 mph32.0 kmh 30.42 in1030.1 mb 0.04 in1.0 mm 0.00 in0.0 mm 0.09 in2.3 mm
05:00 PM 24.2°F-4.3°C -0.2°F-17.9°C 34% 8.5 mph NNW13.7 kmh NNW 19.9 mph32.0 kmh 30.43 in1030.5 mb 0.02 in0.5 mm 0.00 in0.0 mm 0.09 in2.3 mm
05:15 PM 23.8°F-4.6°C -0.5°F-18.1°C 34% 8.5 mph NNW13.7 kmh NNW 23.8 mph38.3 kmh 30.43 in1030.5 mb 0.01 in0.3 mm 0.00 in0.0 mm 0.09 in2.3 mm
05:30 PM 24.2°F-4.3°C -0.2°F-17.9°C 34% 6.5 mph N10.5 kmh N 19.9 mph32.0 kmh 30.43 in1030.5 mb 0.00 in0.0 mm 0.00 in0.0 mm 0.09 in2.3 mm
05:45 PM 23.1°F-4.9°C -0.6°F-18.1°C 35% 9.5 mph N15.3 kmh N 21.0 mph33.8 kmh 30.43 in1030.5 mb 0.00 in0.0 mm 0.00 in0.0 mm 0.09 in2.3 mm
06:00 PM 21.8°F-5.7°C -3.6°F-19.8°C 32% 6.9 mph N11.1 kmh N 22.9 mph36.9 kmh 30.44 in1030.8 mb 0.00 in0.0 mm 0.00 in0.0 mm 0.09 in2.3 mm
06:15 PM 21.1°F-6.1°C -1.7°F-18.7°C 36% 7.5 mph N12.1 kmh N 21.0 mph33.8 kmh 30.44 in1030.8 mb 0.00 in0.0 mm 0.00 in0.0 mm 0.09 in2.3 mm
06:30 PM 20.9°F-6.2°C -1.9°F-18.8°C 36% 4.8 mph N7.7 kmh N 12.3 mph19.8 kmh 30.43 in1030.5 mb 0.00 in0.0 mm 0.00 in0.0 mm 0.09 in2.3 mm
06:45 PM 20.6°F-6.3°C -1.6°F-18.7°C 37% 5.1 mph N8.2 kmh N 12.3 mph19.8 kmh 30.44 in1030.8 mb 0.00 in0.0 mm 0.00 in0.0 mm 0.09 in2.3 mm
07:00 PM 20.0°F-6.7°C -1.6°F-18.7°C 38% 5.0 mph NW8.0 kmh NW 17.1 mph27.5 kmh 30.44 in1030.8 mb 0.00 in0.0 mm 0.00 in0.0 mm 0.09 in2.3 mm
07:15 PM 19.8°F-6.8°C -1.7°F-18.7°C 38% 5.5 mph NW8.9 kmh NW 16.2 mph26.1 kmh 30.44 in1030.8 mb 0.00 in0.0 mm 0.00 in0.0 mm 0.09 in2.3 mm
07:30 PM 19.3°F-7.1°C -1.1°F-18.4°C 40% 3.9 mph NW6.3 kmh NW 12.3 mph19.8 kmh 30.45 in1031.2 mb 0.00 in0.0 mm 0.00 in0.0 mm 0.09 in2.3 mm
07:45 PM 19.1°F-7.2°C -0.8°F-18.2°C 41% 3.9 mph NW6.3 kmh NW 9.5 mph15.3 kmh 30.45 in1031.2 mb 0.00 in0.0 mm 0.00 in0.0 mm 0.09 in2.3 mm
08:00 PM 18.9°F-7.3°C 0.1°F-17.7°C 43% 2.7 mph NW4.3 kmh NW 11.5 mph18.5 kmh 30.45 in1031.2 mb 0.00 in0.0 mm 0.00 in0.0 mm 0.09 in2.3 mm
08:15 PM 18.6°F-7.4°C 0.2°F-17.7°C 44% 2.3 mph NW3.7 kmh NW 5.6 mph9.0 kmh 30.46 in1031.5 mb 0.00 in0.0 mm 0.00 in0.0 mm 0.09 in2.3 mm
08:30 PM 18.2°F-7.7°C -1.6°F-18.7°C 41% 2.4 mph W3.9 kmh W 5.6 mph9.0 kmh 30.46 in1031.5 mb 0.00 in0.0 mm 0.00 in0.0 mm 0.09 in2.3 mm
08:45 PM 18.0°F-7.8°C -1.2°F-18.4°C 42% 2.9 mph W4.7 kmh W 10.3 mph16.6 kmh 30.45 in1031.2 mb 0.00 in0.0 mm 0.00 in0.0 mm 0.09 in2.3 mm
09:00 PM 18.0°F-7.8°C -1.2°F-18.4°C 42% 3.1 mph WNW5.0 kmh WNW 9.5 mph15.3 kmh 30.45 in1031.2 mb 0.00 in0.0 mm 0.00 in0.0 mm 0.09 in2.3 mm
09:15 PM 18.2°F-7.7°C -1.1°F-18.4°C 42% 3.5 mph W5.6 kmh W 9.5 mph15.3 kmh 30.46 in1031.5 mb 0.00 in0.0 mm 0.00 in0.0 mm 0.09 in2.3 mm
09:30 PM 18.4°F-7.6°C 1.0°F-17.2°C 46% 3.9 mph WNW6.3 kmh WNW 10.3 mph16.6 kmh 30.45 in1031.2 mb 0.00 in0.0 mm 0.00 in0.0 mm 0.09 in2.3 mm
09:45 PM 18.6°F-7.4°C 0.7°F-17.4°C 45% 4.3 mph WSW6.9 kmh WSW 10.3 mph16.6 kmh 30.46 in1031.5 mb 0.00 in0.0 mm 0.00 in0.0 mm 0.09 in2.3 mm
10:00 PM 18.8°F-7.3°C 0.9°F-17.3°C 45% 3.9 mph W6.3 kmh W 11.5 mph18.5 kmh 30.46 in1031.5 mb 0.00 in0.0 mm 0.00 in0.0 mm 0.09 in2.3 mm
10:15 PM 18.9°F-7.3°C 1.1°F-17.2°C 45% 3.6 mph WNW5.8 kmh WNW 9.5 mph15.3 kmh 30.46 in1031.5 mb 0.00 in0.0 mm 0.00 in0.0 mm 0.09 in2.3 mm
10:30 PM 18.6°F-7.4°C 0.7°F-17.4°C 45% 3.3 mph WNW5.3 kmh WNW 8.7 mph14.0 kmh 30.47 in1031.8 mb 0.00 in0.0 mm 0.00 in0.0 mm 0.09 in2.3 mm
10:45 PM 18.8°F-7.3°C 1.4°F-17.0°C 46% 4.5 mph W7.2 kmh W 12.3 mph19.8 kmh 30.46 in1031.5 mb 0.00 in0.0 mm 0.00 in0.0 mm 0.09 in2.3 mm
11:00 PM 18.9°F-7.3°C 1.1°F-17.2°C 45% 3.8 mph W6.1 kmh W 10.3 mph16.6 kmh 30.47 in1031.8 mb 0.00 in0.0 mm 0.00 in0.0 mm 0.09 in2.3 mm
11:15 PM 18.8°F-7.3°C 0.9°F-17.3°C 45% 4.3 mph W6.9 kmh W 9.5 mph15.3 kmh 30.47 in1031.8 mb 0.00 in0.0 mm 0.00 in0.0 mm 0.09 in2.3 mm
11:30 PM 18.4°F-7.6°C 1.0°F-17.2°C 46% 2.9 mph W4.7 kmh W 8.7 mph14.0 kmh 30.46 in1031.5 mb 0.00 in0.0 mm 0.00 in0.0 mm 0.09 in2.3 mm
11:45 PM 18.2°F-7.7°C -1.1°F-18.4°C 42% 2.8 mph WNW4.5 kmh WNW 10.3 mph16.6 kmh 30.47 in1031.8 mb 0.00 in0.0 mm 0.00 in0.0 mm 0.09 in2.3 mm